createdAt,value
2019-04-10T00:00:15.526Z,79.26
2019-04-10T00:01:15.528Z,78.88
2019-04-10T00:02:15.543Z,78.59
2019-04-10T00:03:25.534Z,78.59
2019-04-10T00:04:15.558Z,77.94
2019-04-10T00:05:15.891Z,77.46
2019-04-10T00:06:17.901Z,76.61
2019-04-10T00:07:18.076Z,75.38
2019-04-10T00:08:15.590Z,75.00
2019-04-10T00:09:15.606Z,75.09
2019-04-10T00:10:15.988Z,74.52
2019-04-10T00:11:16.567Z,74.43
2019-04-10T00:12:15.779Z,74.15
2019-04-10T00:13:15.634Z,72.73
2019-04-10T00:14:16.430Z,72.92
2019-04-10T00:15:17.450Z,73.30
2019-04-10T00:16:15.967Z,73.11
2019-04-10T00:17:16.557Z,72.53
2019-04-10T00:18:15.949Z,72.73
2019-04-10T00:19:15.687Z,72.92
2019-04-10T00:20:16.289Z,73.39
2019-04-10T00:21:15.703Z,73.11
2019-04-10T00:22:15.713Z,73.30
2019-04-10T00:23:15.720Z,73.20
2019-04-10T00:24:15.728Z,73.30
2019-04-10T00:25:16.769Z,72.73
2019-04-10T00:26:15.747Z,72.73
2019-04-10T00:27:16.674Z,72.34
2019-04-10T00:28:15.765Z,72.44
2019-04-10T00:29:16.154Z,72.16
2019-04-10T00:30:16.627Z,72.16
2019-04-10T00:31:15.857Z,72.06
2019-04-10T00:32:16.110Z,72.44
2019-04-10T00:33:16.593Z,72.82
2019-04-10T00:34:15.817Z,73.49
2019-04-10T00:35:15.834Z,73.30
2019-04-10T00:36:16.195Z,73.49
2019-04-10T00:37:23.832Z,73.68
2019-04-10T00:38:15.850Z,73.86
2019-04-10T00:39:15.863Z,73.58
2019-04-10T00:40:15.871Z,73.39
2019-04-10T00:41:16.329Z,73.68
2019-04-10T00:42:16.819Z,73.01
2019-04-10T00:43:16.956Z,72.44
2019-04-10T00:44:15.903Z,71.97
2019-04-10T00:45:15.914Z,72.16
2019-04-10T00:46:15.928Z,72.63
2019-04-10T00:47:16.852Z,73.01
2019-04-10T00:48:15.940Z,72.73
2019-04-10T00:49:15.951Z,73.39
2019-04-10T00:50:15.958Z,73.39
2019-04-10T00:51:15.969Z,73.39
2019-04-10T00:52:16.338Z,73.39
2019-04-10T00:53:16.947Z,73.49
2019-04-10T00:54:16.125Z,73.68
2019-04-10T00:55:15.998Z,73.58
2019-04-10T00:56:16.595Z,73.77
2019-04-10T00:57:16.976Z,73.30
2019-04-10T00:58:16.253Z,73.39
2019-04-10T00:59:16.038Z,72.92
2019-04-10T01:00:16.922Z,73.30
2019-04-10T01:01:16.050Z,73.68
2019-04-10T01:02:16.480Z,73.68
2019-04-10T01:03:16.071Z,74.05
2019-04-10T01:04:16.126Z,74.05
2019-04-10T01:05:16.091Z,74.71
2019-04-10T01:06:16.109Z,75.00
2019-04-10T01:07:16.889Z,74.77
2019-04-10T01:08:16.160Z,77.33
2019-04-10T01:09:16.118Z,79.79
2019-04-10T01:10:16.128Z,78.56
2019-04-10T01:11:17.102Z,80.64
2019-04-10T01:12:16.148Z,80.55
2019-04-10T01:13:16.740Z,79.79
2019-04-10T01:14:16.163Z,79.22
2019-04-10T01:15:16.268Z,78.75
2019-04-10T01:16:16.459Z,77.80
2019-04-10T01:17:16.199Z,78.27
2019-04-10T01:18:17.121Z,77.89
2019-04-10T01:19:16.207Z,77.23
2019-04-10T01:20:16.215Z,76.95
2019-04-10T01:21:16.222Z,76.95
2019-04-10T01:22:17.028Z,76.57
2019-04-10T01:23:16.237Z,76.38
2019-04-10T01:24:16.252Z,76.29
2019-04-10T01:25:16.553Z,76.19
2019-04-10T01:26:16.269Z,76.67
2019-04-10T01:27:16.270Z,76.00
2019-04-10T01:28:16.403Z,76.00
2019-04-10T01:29:16.291Z,76.10
2019-04-10T01:30:16.298Z,76.19
2019-04-10T01:31:17.143Z,75.91
2019-04-10T01:32:17.221Z,76.19
2019-04-10T01:33:16.559Z,76.00
2019-04-10T01:34:17.053Z,75.81
2019-04-10T01:35:16.341Z,75.72
2019-04-10T01:36:16.348Z,75.81
2019-04-10T01:37:16.647Z,76.00
2019-04-10T01:38:17.518Z,76.38
2019-04-10T01:39:16.369Z,76.76
2019-04-10T01:40:17.111Z,76.95
2019-04-10T01:41:17.343Z,77.23
2019-04-10T01:42:16.582Z,77.61
2019-04-10T01:43:18.946Z,78.27
2019-04-10T01:44:16.413Z,77.80
2019-04-10T01:45:17.427Z,77.80
2019-04-10T01:46:16.429Z,77.89
2019-04-10T01:47:17.214Z,77.42
2019-04-10T01:48:17.438Z,77.23
2019-04-10T01:49:17.452Z,77.04
2019-04-10T01:50:16.467Z,76.95
2019-04-10T01:51:17.184Z,76.86
2019-04-10T01:52:17.235Z,76.67
2019-04-10T01:53:17.419Z,76.38
2019-04-10T01:54:17.238Z,76.19
2019-04-10T01:55:24.210Z,76.29
2019-04-10T01:56:25.128Z,76.19
2019-04-10T01:57:16.717Z,76.38
2019-04-10T01:58:16.988Z,76.38
2019-04-10T01:59:16.535Z,76.48
2019-04-10T02:00:16.540Z,76.67
2019-04-10T02:01:16.597Z,76.29
2019-04-10T02:02:16.895Z,76.67
2019-04-10T02:03:16.567Z,76.19
2019-04-10T02:04:16.574Z,76.00
2019-04-10T02:05:16.647Z,76.57
2019-04-10T02:06:16.861Z,76.38
2019-04-10T02:07:16.603Z,76.29
2019-04-10T02:08:17.841Z,76.86
2019-04-10T02:09:16.612Z,76.67
2019-04-10T02:10:17.058Z,76.86
2019-04-10T02:11:17.523Z,76.95
2019-04-10T02:12:16.796Z,76.95
2019-04-10T02:13:17.126Z,76.76
2019-04-10T02:14:16.659Z,76.76
2019-04-10T02:15:17.735Z,76.67
2019-04-10T02:16:16.774Z,76.19
2019-04-10T02:17:16.858Z,76.38
2019-04-10T02:18:17.254Z,76.48
2019-04-10T02:19:16.693Z,76.29
2019-04-10T02:20:16.852Z,76.76
2019-04-10T02:21:17.894Z,76.38
2019-04-10T02:22:16.719Z,76.67
2019-04-10T02:23:16.726Z,76.48
2019-04-10T02:24:16.770Z,76.76
2019-04-10T02:25:17.836Z,77.23
2019-04-10T02:26:17.077Z,77.23
2019-04-10T02:27:16.756Z,77.33
2019-04-10T02:28:16.764Z,77.70
2019-04-10T02:29:17.657Z,77.70
2019-04-10T02:30:19.142Z,77.23
2019-04-10T02:31:16.791Z,77.70
2019-04-10T02:32:18.775Z,77.33
2019-04-10T02:33:17.856Z,77.23
2019-04-10T02:34:17.392Z,77.04
2019-04-10T02:35:19.541Z,76.95
2019-04-10T02:36:17.340Z,77.23
2019-04-10T02:37:17.120Z,77.23
2019-04-10T02:38:35.775Z,76.76
2019-04-10T02:39:25.647Z,76.19
2019-04-10T02:40:17.112Z,76.29
2019-04-10T02:41:17.413Z,75.62
2019-04-10T02:42:18.453Z,76.00
2019-04-10T02:43:16.898Z,75.91
2019-04-10T02:44:18.501Z,76.10
2019-04-10T02:45:18.586Z,76.00
2019-04-10T02:46:16.913Z,75.91
2019-04-10T02:47:17.165Z,75.53
2019-04-10T02:48:17.178Z,75.43
2019-04-10T02:49:18.480Z,75.05
2019-04-10T02:50:18.649Z,74.77
2019-04-10T02:51:17.581Z,74.87
2019-04-10T02:52:16.961Z,74.87
2019-04-10T02:53:16.983Z,74.96
2019-04-10T02:54:17.540Z,74.30
2019-04-10T02:55:18.540Z,74.49
2019-04-10T02:56:18.047Z,74.58
2019-04-10T02:57:17.458Z,74.17
2019-04-10T02:58:18.713Z,74.30
2019-04-10T02:59:18.529Z,74.58
2019-04-10T03:00:18.074Z,74.49
2019-04-10T03:01:17.474Z,75.15
2019-04-10T03:02:17.039Z,75.40
2019-04-10T03:03:18.070Z,75.24
2019-04-10T03:04:18.340Z,74.96
2019-04-10T03:05:17.801Z,74.96
2019-04-10T03:06:18.741Z,75.31
2019-04-10T03:07:17.730Z,74.77
2019-04-10T03:08:17.471Z,74.68
2019-04-10T03:09:32.267Z,74.77
2019-04-10T03:10:25.289Z,74.83
2019-04-10T03:11:19.507Z,74.17
2019-04-10T03:12:17.112Z,73.73
2019-04-10T03:13:17.871Z,73.60
2019-04-10T03:14:18.783Z,73.35
2019-04-10T03:15:18.985Z,73.64
2019-04-10T03:16:17.716Z,72.85
2019-04-10T03:17:17.723Z,72.37
2019-04-10T03:18:17.160Z,71.42
2019-04-10T03:19:17.168Z,71.61
2019-04-10T03:20:18.314Z,71.52
2019-04-10T03:21:17.187Z,70.67
2019-04-10T03:22:17.190Z,70.57
2019-04-10T03:23:17.633Z,70.57
2019-04-10T03:24:17.206Z,70.39
2019-04-10T03:25:18.365Z,71.04
2019-04-10T03:26:17.333Z,70.29
2019-04-10T03:27:19.083Z,69.53
2019-04-10T03:28:17.240Z,70.10
2019-04-10T03:29:17.812Z,70.29
2019-04-10T03:30:18.479Z,70.57
2019-04-10T03:31:17.268Z,70.48
2019-04-10T03:32:18.801Z,70.57
2019-04-10T03:33:21.756Z,70.48
2019-04-10T03:34:20.880Z,70.86
2019-04-10T03:35:17.295Z,70.86
2019-04-10T03:36:17.300Z,71.04
2019-04-10T03:37:18.144Z,71.04
2019-04-10T03:38:18.312Z,70.95
2019-04-10T03:39:17.514Z,71.14
2019-04-10T03:40:17.463Z,71.23
2019-04-10T03:41:17.775Z,71.33
2019-04-10T03:42:17.350Z,71.14
2019-04-10T03:43:17.557Z,71.23
2019-04-10T03:44:17.365Z,71.33
2019-04-10T03:45:17.372Z,71.90
2019-04-10T03:46:17.383Z,71.90
2019-04-10T03:47:17.528Z,71.99
2019-04-10T03:48:17.393Z,71.61
2019-04-10T03:49:17.828Z,72.09
2019-04-10T03:50:18.378Z,71.80
2019-04-10T03:51:18.555Z,71.90
2019-04-10T03:52:17.427Z,71.99
2019-04-10T03:53:18.088Z,71.90
2019-04-10T03:54:18.592Z,71.99
2019-04-10T03:55:17.448Z,71.80
2019-04-10T03:56:18.013Z,71.90
2019-04-10T03:57:18.415Z,71.52
2019-04-10T03:58:17.625Z,72.37
2019-04-10T03:59:17.477Z,73.79
2019-04-10T04:00:18.115Z,74.83
2019-04-10T04:01:18.372Z,74.83
2019-04-10T04:02:17.763Z,74.36
2019-04-10T04:03:18.303Z,74.93
2019-04-10T04:04:17.608Z,74.83
2019-04-10T04:05:18.301Z,74.93
2019-04-10T04:06:17.652Z,74.83
2019-04-10T04:07:17.562Z,74.74
2019-04-10T04:08:17.548Z,74.64
2019-04-10T04:09:17.714Z,74.93
2019-04-10T04:10:18.289Z,74.83
2019-04-10T04:11:17.642Z,74.93
2019-04-10T04:12:18.130Z,74.83
2019-04-10T04:13:17.586Z,75.12
2019-04-10T04:14:17.593Z,74.83
2019-04-10T04:15:17.802Z,74.93
2019-04-10T04:16:17.607Z,74.55
2019-04-10T04:17:17.614Z,74.55
2019-04-10T04:18:17.625Z,74.36
2019-04-10T04:19:17.757Z,74.83
2019-04-10T04:20:17.638Z,74.83
2019-04-10T04:21:17.647Z,74.93
2019-04-10T04:22:18.646Z,75.12
2019-04-10T04:23:17.665Z,74.55
2019-04-10T04:24:17.912Z,75.12
2019-04-10T04:25:17.675Z,74.45
2019-04-10T04:26:17.683Z,74.64
2019-04-10T04:27:18.911Z,74.26
2019-04-10T04:28:18.831Z,73.79
2019-04-10T04:29:18.479Z,74.07
2019-04-10T04:30:17.724Z,73.79
2019-04-10T04:31:18.152Z,73.88
2019-04-10T04:32:17.742Z,73.88
2019-04-10T04:33:17.740Z,73.79
2019-04-10T04:34:18.679Z,73.50
2019-04-10T04:35:17.751Z,73.32
2019-04-10T04:36:18.272Z,73.88
2019-04-10T04:37:18.739Z,73.88
2019-04-10T04:38:17.875Z,74.07
2019-04-10T04:39:25.681Z,74.17
2019-04-10T04:40:17.791Z,74.26
2019-04-10T04:41:17.800Z,74.17
2019-04-10T04:42:17.804Z,74.07
2019-04-10T04:43:18.716Z,73.79
2019-04-10T04:44:18.128Z,74.07
2019-04-10T04:45:17.827Z,74.26
2019-04-10T04:46:18.394Z,74.36
2019-04-10T04:47:18.198Z,74.55
2019-04-10T04:48:17.855Z,74.74
2019-04-10T04:49:18.192Z,74.64
2019-04-10T04:50:17.914Z,75.02
2019-04-10T04:51:17.872Z,75.49
2019-04-10T04:52:18.339Z,75.78
2019-04-10T04:53:18.365Z,75.68
2019-04-10T04:54:17.894Z,76.06
2019-04-10T04:55:17.903Z,76.06
2019-04-10T04:56:17.941Z,76.06
2019-04-10T04:57:17.921Z,75.96
2019-04-10T04:58:18.120Z,76.06
2019-04-10T04:59:18.426Z,76.06
2019-04-10T05:00:17.939Z,75.96
2019-04-10T05:01:18.971Z,75.87
2019-04-10T05:02:17.958Z,75.31
2019-04-10T05:03:18.561Z,75.68
2019-04-10T05:04:17.972Z,75.12
2019-04-10T05:05:18.518Z,75.02
2019-04-10T05:06:18.154Z,74.83
2019-04-10T05:07:17.991Z,75.12
2019-04-10T05:08:18.002Z,75.02
2019-04-10T05:09:29.868Z,74.64
2019-04-10T05:10:18.017Z,74.55
2019-04-10T05:11:18.333Z,74.74
2019-04-10T05:12:18.148Z,74.64
2019-04-10T05:13:18.048Z,74.55
2019-04-10T05:14:18.042Z,74.45
2019-04-10T05:15:18.516Z,74.74
2019-04-10T05:16:18.656Z,74.74
2019-04-10T05:17:18.376Z,74.17
2019-04-10T05:18:19.057Z,74.17
2019-04-10T05:19:19.016Z,74.45
2019-04-10T05:20:19.002Z,74.07
2019-04-10T05:21:19.080Z,74.36
2019-04-10T05:22:18.763Z,74.07
2019-04-10T05:23:18.112Z,74.07
2019-04-10T05:24:18.121Z,74.07
2019-04-10T05:25:19.021Z,73.98
2019-04-10T05:26:18.692Z,74.17
2019-04-10T05:27:18.188Z,74.07
2019-04-10T05:28:18.992Z,73.98
2019-04-10T05:29:18.333Z,74.07
2019-04-10T05:30:18.393Z,73.98
2019-04-10T05:31:19.274Z,74.07
2019-04-10T05:32:18.174Z,74.26
2019-04-10T05:33:18.384Z,74.07
2019-04-10T05:34:18.189Z,74.55
2019-04-10T05:35:19.228Z,73.98
2019-04-10T05:36:18.211Z,73.98
2019-04-10T05:37:19.129Z,74.07
2019-04-10T05:38:18.759Z,74.07
2019-04-10T05:39:18.982Z,73.60
2019-04-10T05:40:18.238Z,74.26
2019-04-10T05:41:18.245Z,73.69
2019-04-10T05:42:18.254Z,73.88
2019-04-10T05:43:18.264Z,73.79
2019-04-10T05:44:18.264Z,73.32
2019-04-10T05:45:18.275Z,73.32
2019-04-10T05:46:18.574Z,73.69
2019-04-10T05:47:19.258Z,73.60
2019-04-10T05:48:21.038Z,73.50
2019-04-10T05:49:18.300Z,73.22
2019-04-10T05:50:19.379Z,72.85
2019-04-10T05:51:19.170Z,73.03
2019-04-10T05:52:18.355Z,72.85
2019-04-10T05:53:18.499Z,72.94
2019-04-10T05:54:19.226Z,72.75
2019-04-10T05:55:18.379Z,73.03
2019-04-10T05:56:19.176Z,73.22
2019-04-10T05:57:18.364Z,73.22
2019-04-10T05:58:19.549Z,72.47
2019-04-10T05:59:19.514Z,72.47
2019-04-10T06:00:18.845Z,72.66
2019-04-10T06:01:29.972Z,72.94
2019-04-10T06:02:18.399Z,72.66
2019-04-10T06:03:18.634Z,72.37
2019-04-10T06:04:18.984Z,72.28
2019-04-10T06:05:18.419Z,72.18
2019-04-10T06:06:18.430Z,71.90
2019-04-10T06:07:19.141Z,71.90
2019-04-10T06:08:18.446Z,71.99
2019-04-10T06:09:18.502Z,72.12
2019-04-10T06:10:19.537Z,72.12
2019-04-10T06:11:18.467Z,72.18
2019-04-10T06:12:18.475Z,72.50
2019-04-10T06:13:19.333Z,72.47
2019-04-10T06:14:18.498Z,72.47
2019-04-10T06:15:19.083Z,72.22
2019-04-10T06:16:19.485Z,72.60
2019-04-10T06:17:18.510Z,72.60
2019-04-10T06:18:18.824Z,72.37
2019-04-10T06:19:18.532Z,72.85
2019-04-10T06:20:18.534Z,72.88
2019-04-10T06:21:18.858Z,72.31
2019-04-10T06:22:18.742Z,72.41
2019-04-10T06:23:19.174Z,71.74
2019-04-10T06:24:18.567Z,71.36
2019-04-10T06:25:19.704Z,72.03
2019-04-10T06:26:19.878Z,72.41
2019-04-10T06:27:18.619Z,72.88
2019-04-10T06:28:18.597Z,73.45
2019-04-10T06:29:19.191Z,72.31
2019-04-10T06:30:19.706Z,71.46
2019-04-10T06:31:18.729Z,71.55
2019-04-10T06:32:19.171Z,71.17
2019-04-10T06:33:18.635Z,71.93
2019-04-10T06:34:18.943Z,74.30
2019-04-10T06:35:19.690Z,72.69
2019-04-10T06:36:19.523Z,73.73
2019-04-10T06:37:18.743Z,73.64
2019-04-10T06:38:19.012Z,73.54
2019-04-10T06:39:18.679Z,72.97
2019-04-10T06:40:21.306Z,73.26
2019-04-10T06:41:19.212Z,71.65
2019-04-10T06:42:18.707Z,71.93
2019-04-10T06:43:19.104Z,73.92
2019-04-10T06:44:19.561Z,75.34
2019-04-10T06:45:19.768Z,74.30
2019-04-10T06:46:18.736Z,74.43
2019-04-10T06:47:18.745Z,74.81
2019-04-10T06:48:19.258Z,73.92
2019-04-10T06:49:18.759Z,74.30
2019-04-10T06:50:19.029Z,74.30
2019-04-10T06:51:20.290Z,75.24
2019-04-10T06:52:18.783Z,75.95
2019-04-10T06:53:18.799Z,75.76
2019-04-10T06:54:18.800Z,74.62
2019-04-10T06:55:18.805Z,74.71
2019-04-10T06:56:18.813Z,74.62
2019-04-10T06:57:18.819Z,75.00
2019-04-10T06:58:20.014Z,74.05
2019-04-10T06:59:19.130Z,75.38
2019-04-10T07:00:19.779Z,74.71
2019-04-10T07:01:20.987Z,75.00
2019-04-10T07:02:25.607Z,74.43
2019-04-10T07:03:18.971Z,75.57
2019-04-10T07:04:21.956Z,76.80
2019-04-10T07:05:19.899Z,76.89
2019-04-10T07:06:21.889Z,78.22
2019-04-10T07:07:21.773Z,77.75
2019-04-10T07:08:22.192Z,78.31
2019-04-10T07:09:21.367Z,77.08
2019-04-10T07:10:27.330Z,78.50
2019-04-10T07:11:21.688Z,77.37
2019-04-10T07:12:18.934Z,76.61
2019-04-10T07:13:19.718Z,76.32
2019-04-10T07:14:18.945Z,75.95
2019-04-10T07:15:22.359Z,74.71
2019-04-10T07:16:20.013Z,75.00
2019-04-10T07:17:19.948Z,74.62
2019-04-10T07:18:20.672Z,74.52
2019-04-10T07:19:19.835Z,74.81
2019-04-10T07:20:20.673Z,73.86
2019-04-10T07:21:20.071Z,75.47
2019-04-10T07:22:19.006Z,76.32
2019-04-10T07:23:24.135Z,74.24
2019-04-10T07:24:19.021Z,73.58
2019-04-10T07:25:19.611Z,75.47
2019-04-10T07:26:27.896Z,75.09
2019-04-10T07:27:19.493Z,75.23
2019-04-10T07:28:19.527Z,73.80
2019-04-10T07:29:21.012Z,74.15
2019-04-10T07:30:19.450Z,74.43
2019-04-10T07:31:19.378Z,74.52
2019-04-10T07:32:19.474Z,74.15
2019-04-10T07:33:19.959Z,73.58
2019-04-10T07:34:23.885Z,74.33
2019-04-10T07:35:21.451Z,74.81
2019-04-10T07:36:20.276Z,77.40
2019-04-10T07:37:21.668Z,77.03
2019-04-10T07:38:21.202Z,78.16
2019-04-10T07:39:19.143Z,78.54
2019-04-10T07:40:19.143Z,76.65
2019-04-10T07:41:21.906Z,75.89
2019-04-10T07:42:26.973Z,76.08
2019-04-10T07:43:25.471Z,76.36
2019-04-10T07:44:19.174Z,75.60
2019-04-10T07:45:19.185Z,75.04
2019-04-10T07:46:19.189Z,74.66
2019-04-10T07:47:19.612Z,74.75
2019-04-10T07:48:19.208Z,75.26
2019-04-10T07:49:20.545Z,75.07
2019-04-10T07:50:19.223Z,74.98
2019-04-10T07:51:19.234Z,76.12
2019-04-10T07:52:21.031Z,74.51
2019-04-10T07:53:19.248Z,73.84
2019-04-10T07:54:21.234Z,74.09
2019-04-10T07:55:19.268Z,73.90
2019-04-10T07:56:20.888Z,74.37
2019-04-10T07:57:20.272Z,74.95
2019-04-10T07:58:19.515Z,76.03
2019-04-10T07:59:19.292Z,75.07
2019-04-10T08:00:20.124Z,73.75
2019-04-10T08:01:19.311Z,72.61
2019-04-10T08:02:19.315Z,74.13
2019-04-10T08:03:19.331Z,74.41
2019-04-10T08:04:20.317Z,74.88
2019-04-10T08:05:19.343Z,74.22
2019-04-10T08:06:19.960Z,74.88
2019-04-10T08:07:26.619Z,74.16
2019-04-10T08:08:19.465Z,71.66
2019-04-10T08:09:19.376Z,73.08
2019-04-10T08:10:20.006Z,72.80
2019-04-10T08:11:19.748Z,72.89
2019-04-10T08:12:19.397Z,74.32
2019-04-10T08:13:20.354Z,70.72
2019-04-10T08:14:19.659Z,74.26
2019-04-10T08:15:19.424Z,71.60
2019-04-10T08:16:19.430Z,70.47
2019-04-10T08:17:19.696Z,70.84
2019-04-10T08:18:19.452Z,71.28
2019-04-10T08:19:19.459Z,69.33
2019-04-10T08:20:19.464Z,67.96
2019-04-10T08:21:19.798Z,71.03
2019-04-10T08:22:20.178Z,69.10
2019-04-10T08:23:19.780Z,72.04
2019-04-10T08:24:20.280Z,74.22
2019-04-10T08:25:19.544Z,74.64
2019-04-10T08:26:21.250Z,73.08
2019-04-10T08:27:19.525Z,74.64
2019-04-10T08:28:19.829Z,71.73
2019-04-10T08:29:19.541Z,69.33
2019-04-10T08:30:19.631Z,70.94
2019-04-10T08:31:19.554Z,73.12
2019-04-10T08:32:19.567Z,71.07
2019-04-10T08:33:19.616Z,67.65
2019-04-10T08:34:19.581Z,66.20
2019-04-10T08:35:20.799Z,67.65
2019-04-10T08:36:19.599Z,69.27
2019-04-10T08:37:20.642Z,66.80
2019-04-10T08:38:19.668Z,67.18
2019-04-10T08:39:31.756Z,65.75
2019-04-10T08:40:19.632Z,62.34
2019-04-10T08:41:19.641Z,61.68
2019-04-10T08:42:19.651Z,60.44
2019-04-10T08:43:20.178Z,59.49
2019-04-10T08:44:19.962Z,61.49
2019-04-10T08:45:20.907Z,62.02
2019-04-10T08:46:19.880Z,63.64
2019-04-10T08:47:19.695Z,61.58
2019-04-10T08:48:19.810Z,60.70
2019-04-10T08:49:21.298Z,61.74
2019-04-10T08:50:19.836Z,61.83
2019-04-10T08:51:19.727Z,63.17
2019-04-10T08:52:19.973Z,64.01
2019-04-10T08:53:20.117Z,65.28
2019-04-10T08:54:20.397Z,64.05
2019-04-10T08:55:19.785Z,63.01
2019-04-10T08:56:20.470Z,62.82
2019-04-10T08:57:19.785Z,62.24
2019-04-10T08:58:20.813Z,63.39
2019-04-10T08:59:19.801Z,64.33
2019-04-10T09:00:20.668Z,64.14
2019-04-10T09:01:20.836Z,63.20
2019-04-10T09:02:20.116Z,66.14
2019-04-10T09:03:19.841Z,65.75
2019-04-10T09:04:19.852Z,65.75
2019-04-10T09:05:19.855Z,65.85
2019-04-10T09:06:19.869Z,63.60
2019-04-10T09:07:20.067Z,63.39
2019-04-10T09:08:21.070Z,65.88
2019-04-10T09:09:19.892Z,65.79
2019-04-10T09:10:20.561Z,64.37
2019-04-10T09:11:26.564Z,63.89
2019-04-10T09:12:19.925Z,62.08
2019-04-10T09:13:20.179Z,62.05
2019-04-10T09:14:21.065Z,65.50
2019-04-10T09:15:19.950Z,66.36
2019-04-10T09:16:20.429Z,62.94
2019-04-10T09:17:19.973Z,60.19
2019-04-10T09:18:20.980Z,61.90
2019-04-10T09:19:20.438Z,61.80
2019-04-10T09:20:19.998Z,62.46
2019-04-10T09:21:20.006Z,64.08
2019-04-10T09:22:20.482Z,61.04
2019-04-10T09:23:32.999Z,60.28
2019-04-10T09:24:20.037Z,63.51
2019-04-10T09:25:20.045Z,63.07
2019-04-10T09:26:20.330Z,61.42
2019-04-10T09:27:21.215Z,62.21
2019-04-10T09:28:20.171Z,62.40
2019-04-10T09:29:21.864Z,62.97
2019-04-10T09:30:20.486Z,64.40
2019-04-10T09:31:20.105Z,63.54
2019-04-10T09:32:20.216Z,64.21
2019-04-10T09:33:24.905Z,63.54
2019-04-10T09:34:20.134Z,64.53
2019-04-10T09:35:20.455Z,64.30
2019-04-10T09:36:20.160Z,63.26
2019-04-10T09:37:20.167Z,63.57
2019-04-10T09:38:20.941Z,62.53
2019-04-10T09:39:20.209Z,62.53
2019-04-10T09:40:20.483Z,65.09
2019-04-10T09:41:20.215Z,63.07
2019-04-10T09:42:21.439Z,62.97
2019-04-10T09:43:21.021Z,64.78
2019-04-10T09:44:20.833Z,66.52
2019-04-10T09:45:20.250Z,65.86
2019-04-10T09:46:20.435Z,64.30
2019-04-10T09:47:20.591Z,66.11
2019-04-10T09:48:20.282Z,65.44
2019-04-10T09:49:31.673Z,64.43
2019-04-10T09:50:21.301Z,64.02
2019-04-10T09:51:21.363Z,65.44
2019-04-10T09:52:20.318Z,65.16
2019-04-10T09:53:21.140Z,68.71
2019-04-10T09:54:20.341Z,65.19
2019-04-10T09:55:20.355Z,66.24
2019-04-10T09:56:21.394Z,67.50
2019-04-10T09:57:20.374Z,66.46
2019-04-10T09:58:20.384Z,66.27
2019-04-10T09:59:32.112Z,66.08
2019-04-10T10:00:21.347Z,63.99
2019-04-10T10:01:20.413Z,63.57
2019-04-10T10:02:20.432Z,65.38
2019-04-10T10:03:20.655Z,64.90
2019-04-10T10:04:21.376Z,67.98
2019-04-10T10:05:20.463Z,65.60
2019-04-10T10:06:27.084Z,63.23
2019-04-10T10:07:20.765Z,63.39
2019-04-10T10:08:20.514Z,65.19
2019-04-10T10:09:20.499Z,64.18
2019-04-10T10:10:20.701Z,62.91
2019-04-10T10:11:20.519Z,65.03
2019-04-10T10:12:20.533Z,63.48
2019-04-10T10:13:21.386Z,66.05
2019-04-10T10:14:20.957Z,64.90
2019-04-10T10:15:21.088Z,65.57
2019-04-10T10:16:21.007Z,66.52
2019-04-10T10:17:20.585Z,65.99
2019-04-10T10:18:21.398Z,65.13
2019-04-10T10:19:21.662Z,63.99
2019-04-10T10:20:21.719Z,62.56
2019-04-10T10:21:20.767Z,62.69
2019-04-10T10:22:21.021Z,60.78
2019-04-10T10:23:20.655Z,63.83
2019-04-10T10:24:20.669Z,60.97
2019-04-10T10:25:21.536Z,60.44
2019-04-10T10:26:20.707Z,58.91
2019-04-10T10:27:21.964Z,57.93
2019-04-10T10:28:20.839Z,59.52
2019-04-10T10:29:21.720Z,60.88
2019-04-10T10:30:20.736Z,59.14
2019-04-10T10:31:20.741Z,60.66
2019-04-10T10:32:21.293Z,59.42
2019-04-10T10:33:21.594Z,61.04
2019-04-10T10:34:20.775Z,62.18
2019-04-10T10:35:21.026Z,62.30
2019-04-10T10:36:21.791Z,61.16
2019-04-10T10:37:21.879Z,62.91
2019-04-10T10:38:21.164Z,60.21
2019-04-10T10:39:21.165Z,60.57
2019-04-10T10:40:20.852Z,60.85
2019-04-10T10:41:20.856Z,60.82
2019-04-10T10:42:21.344Z,63.10
2019-04-10T10:43:20.887Z,62.72
2019-04-10T10:44:21.809Z,63.67
2019-04-10T10:45:20.908Z,63.64
2019-04-10T10:46:20.917Z,63.54
2019-04-10T10:47:22.169Z,64.46
2019-04-10T10:48:21.926Z,65.98
2019-04-10T10:49:20.958Z,67.06
2019-04-10T10:50:22.108Z,65.22
2019-04-10T10:51:20.971Z,66.27
2019-04-10T10:52:21.554Z,66.27
2019-04-10T10:53:21.955Z,65.98
2019-04-10T10:54:21.205Z,65.60
2019-04-10T10:55:21.357Z,66.27
2019-04-10T10:56:21.026Z,66.87
2019-04-10T10:57:21.035Z,65.63
2019-04-10T10:58:21.817Z,65.82
2019-04-10T10:59:21.802Z,64.87
2019-04-10T11:00:21.068Z,64.37
2019-04-10T11:01:22.023Z,64.75
2019-04-10T11:02:21.307Z,66.27
2019-04-10T11:03:22.349Z,65.85
2019-04-10T11:04:21.125Z,66.27
2019-04-10T11:05:21.203Z,67.25
2019-04-10T11:06:21.134Z,65.82
2019-04-10T11:07:21.146Z,64.40
2019-04-10T11:08:22.072Z,62.88
2019-04-10T11:09:21.162Z,63.26
2019-04-10T11:10:24.455Z,62.78
2019-04-10T11:11:22.610Z,62.91
2019-04-10T11:12:21.983Z,62.02
2019-04-10T11:13:22.324Z,63.04
2019-04-10T11:14:21.541Z,63.98
2019-04-10T11:15:21.227Z,65.63
2019-04-10T11:16:21.242Z,64.08
2019-04-10T11:17:22.247Z,65.69
2019-04-10T11:18:22.243Z,65.69
2019-04-10T11:19:21.278Z,65.98
2019-04-10T11:20:21.533Z,66.49
2019-04-10T11:21:22.732Z,65.35
2019-04-10T11:22:22.957Z,65.25
2019-04-10T11:23:22.129Z,64.21
2019-04-10T11:24:21.322Z,62.40
2019-04-10T11:25:22.149Z,63.95
2019-04-10T11:26:24.014Z,62.81
2019-04-10T11:27:21.393Z,62.72
2019-04-10T11:28:22.715Z,61.65
2019-04-10T11:29:22.022Z,61.93
2019-04-10T11:30:22.441Z,60.60
2019-04-10T11:31:23.626Z,61.90
2019-04-10T11:32:22.164Z,63.79
2019-04-10T11:33:22.384Z,65.60
2019-04-10T11:34:22.600Z,67.44
2019-04-10T11:35:21.906Z,65.73
2019-04-10T11:36:21.461Z,64.11
2019-04-10T11:37:31.779Z,64.17
2019-04-10T11:38:21.667Z,65.22
2019-04-10T11:39:26.035Z,65.88
2019-04-10T11:40:23.340Z,66.83
2019-04-10T11:41:23.152Z,65.88
2019-04-10T11:42:22.641Z,65.98
2019-04-10T11:43:21.745Z,65.31
2019-04-10T11:44:21.751Z,65.31
2019-04-10T11:45:23.005Z,63.98
2019-04-10T11:46:22.737Z,65.31
2019-04-10T11:47:23.624Z,64.84
2019-04-10T11:48:22.997Z,65.12
2019-04-10T11:49:22.922Z,65.19
2019-04-10T11:50:22.469Z,66.08
2019-04-10T11:51:23.513Z,64.94
2019-04-10T11:52:33.036Z,66.27
2019-04-10T11:53:21.632Z,66.17
2019-04-10T11:54:26.426Z,66.17
2019-04-10T11:55:25.817Z,65.60
2019-04-10T11:56:23.504Z,65.98
2019-04-10T11:57:22.878Z,65.12
2019-04-10T11:58:22.406Z,66.39
2019-04-10T11:59:23.726Z,66.11
2019-04-10T12:00:23.727Z,63.92
2019-04-10T12:01:24.561Z,62.85
2019-04-10T12:02:24.919Z,64.27
2019-04-10T12:03:22.637Z,64.75
2019-04-10T12:04:23.096Z,62.75
2019-04-10T12:05:22.095Z,64.56
2019-04-10T12:06:25.007Z,64.56
2019-04-10T12:07:53.024Z,63.51
2019-04-10T12:10:08.518Z,62.18
2019-04-10T12:11:22.865Z,63.54
2019-04-10T12:12:21.828Z,63.45
2019-04-10T12:13:22.032Z,62.40
2019-04-10T12:14:21.847Z,62.46
2019-04-10T12:15:21.857Z,62.08
2019-04-10T12:16:23.058Z,61.42
2019-04-10T12:17:22.141Z,61.30
2019-04-10T12:18:22.541Z,62.82
2019-04-10T12:19:24.058Z,63.48
2019-04-10T12:20:21.916Z,63.48
2019-04-10T12:21:21.932Z,63.51
2019-04-10T12:22:21.928Z,63.79
2019-04-10T12:23:23.026Z,64.02
2019-04-10T12:24:21.952Z,65.16
2019-04-10T12:25:22.915Z,63.73
2019-04-10T12:26:21.969Z,64.11
2019-04-10T12:27:23.044Z,63.45
2019-04-10T12:28:22.182Z,61.93
2019-04-10T12:29:22.543Z,61.42
2019-04-10T12:30:22.010Z,62.56
2019-04-10T12:31:22.020Z,63.13
2019-04-10T12:32:23.034Z,64.08
2019-04-10T12:33:22.252Z,63.26
2019-04-10T12:34:22.457Z,63.45
2019-04-10T12:35:22.642Z,63.04
2019-04-10T12:36:22.553Z,62.27
2019-04-10T12:37:22.080Z,62.85
2019-04-10T12:38:22.093Z,62.75
2019-04-10T12:39:22.686Z,63.60
2019-04-10T12:40:22.112Z,63.70
2019-04-10T12:41:22.121Z,66.17
2019-04-10T12:42:22.134Z,67.02
2019-04-10T12:43:23.163Z,66.71
2019-04-10T12:44:23.163Z,66.71
2019-04-10T12:45:22.296Z,68.04
2019-04-10T12:46:22.174Z,69.74
2019-04-10T12:47:22.182Z,70.35
2019-04-10T12:48:23.047Z,70.50
2019-04-10T12:49:22.202Z,70.69
2019-04-10T12:50:22.579Z,70.50
2019-04-10T12:51:22.226Z,71.73
2019-04-10T12:52:22.738Z,71.64
2019-04-10T12:53:23.236Z,71.07
2019-04-10T12:54:22.258Z,70.69